LXGB/GIB METAR and TAF weather

Enter ICAO airport designator
Station Type Date Time Source
LXGB METAR 2021/09/24 02:50 UTC NOAA

LXGB 240250Z AUTO 25004KT 4400 HZ BKN008/// 21/20 Q1012


Station Type Date Time Source
LXGB Decoded METAR 2021/09/24 02:50 UTC NOAA

Gibraltar, Gibraltar (LXGB) 36-09N 005-21W 0M
Sep 23, 2021 - 10:50 PM EDT / 2021.09.24 0250 UTC
Wind: from the WSW (250 degrees) at 5 MPH (4 KT):0
Visibility: 2 mile(s):0
Sky conditions: mostly cloudy
Weather: haze
Temperature: 69 F (21 C)
Dew Point: 68 F (20 C)
Relative Humidity: 94%
Pressure (altimeter): 29.88 in. Hg (1012 hPa)
ob: LXGB 240250Z AUTO 25004KT 4400 HZ BKN008/// 21/20 Q1012
cycle: 3

Station Type Date Time Source
LXGB TAF 2020/12/29 18:09 UTC NOAA

TAF TAF LXGB 290602Z 2818/2923 CNL

Example: see airport list